Cheyenne Regional Jerry Olson Field Cheyenne US
ICAO: KCYS
IATA: CYS
Category: Medium
Scheduled Services: Yes

Elevation: 6159 ft
TransAlt. 18000 ft.

Airport Communications:
APP/DEP:124.55
ATIS:134.425
CTAF:118.7
GND:121.9
ARNG OPS:126.2
ANG OPS/COMD POST:22.552
CASPER RDO:122.3
TWR:118.7
UNICOM:122.95

KCYS Zoom In..

If you have problems with the map follow the link
https://www.worldairports.se/pages/airport.php?
ICAO=KCYS

Runways:

(A) RW 09 length 9270 ft width 150 ft
---- / hdg 85

(B) RW 13 length 6690 ft width 150 ft
---- / hdg 125

(C) RW 27 length 9270 ft width 150 ft
ILS 110.10 / hdg 265

(D) RW 31 length 6690 ft width 150 ft
---- / hdg 305

Location; KCYS
Day. 29 / Time. 17.14 Zulu
* Altimeter: 30.05
* Temperature: 01° c. 33.8°f.
* Wind from: 330° Speed 07 kn.
Dewpoint: -05° c.
Visibility: 10 Statute Miles.
Clouds: Broken 2700 ft.
Clouds: Overcast 4700 ft.

KCYS 291714Z 33007KT 10SM BKN027 OVC047 01/M05 A3005 RMK AO2 T00111050


Wind From 330°
Speed 07 kn.

 
 
jpsmedia worldairports.se 2020   terms of use